sensor_id;sensor_type;location;lat;lon;timestamp;P1;durP1;ratioP1;P2;durP2;ratioP2
26486;SDS011;14425;56.136;40.360;2023-05-07T00:01:09;1.77;;;0.70;;
26486;SDS011;14425;56.136;40.360;2023-05-07T00:03:34;1.55;;;0.77;;
26486;SDS011;14425;56.136;40.360;2023-05-07T00:06:01;1.17;;;0.68;;
26486;SDS011;14425;56.136;40.360;2023-05-07T00:08:27;0.77;;;0.60;;
26486;SDS011;14425;56.136;40.360;2023-05-07T00:10:52;0.82;;;0.63;;
26486;SDS011;14425;56.136;40.360;2023-05-07T00:13:18;0.80;;;0.55;;
26486;SDS011;14425;56.136;40.360;2023-05-07T00:15:43;1.02;;;0.77;;
26486;SDS011;14425;56.136;40.360;2023-05-07T00:18:09;1.98;;;1.50;;
26486;SDS011;14425;56.136;40.360;2023-05-07T00:20:35;3.13;;;0.60;;
26486;SDS011;14425;56.136;40.360;2023-05-07T00:23:00;2.47;;;0.90;;
26486;SDS011;14425;56.136;40.360;2023-05-07T00:25:26;4.70;;;0.77;;
26486;SDS011;14425;56.136;40.360;2023-05-07T00:27:51;1.10;;;0.80;;
26486;SDS011;14425;56.136;40.360;2023-05-07T00:30:17;0.93;;;0.73;;
26486;SDS011;14425;56.136;40.360;2023-05-07T00:32:42;1.92;;;0.80;;
26486;SDS011;14425;56.136;40.360;2023-05-07T00:35:10;2.03;;;0.50;;
26486;SDS011;14425;56.136;40.360;2023-05-07T00:37:36;1.20;;;0.82;;
26486;SDS011;14425;56.136;40.360;2023-05-07T00:40:01;1.38;;;0.70;;
26486;SDS011;14425;56.136;40.360;2023-05-07T00:42:30;1.25;;;0.80;;
26486;SDS011;14425;56.136;40.360;2023-05-07T00:44:57;1.73;;;0.70;;
26486;SDS011;14425;56.136;40.360;2023-05-07T00:47:23;1.13;;;0.80;;
26486;SDS011;14425;56.136;40.360;2023-05-07T00:49:50;0.70;;;0.70;;
26486;SDS011;14425;56.136;40.360;2023-05-07T00:52:16;1.80;;;1.13;;
26486;SDS011;14425;56.136;40.360;2023-05-07T00:54:44;1.38;;;0.70;;
26486;SDS011;14425;56.136;40.360;2023-05-07T00:57:10;0.93;;;0.55;;
26486;SDS011;14425;56.136;40.360;2023-05-07T00:59:36;0.80;;;0.60;;
26486;SDS011;14425;56.136;40.360;2023-05-07T01:02:02;0.70;;;0.50;;
26486;SDS011;14425;56.136;40.360;2023-05-07T01:04:28;1.23;;;0.70;;
26486;SDS011;14425;56.136;40.360;2023-05-07T01:06:56;0.98;;;0.70;;
26486;SDS011;14425;56.136;40.360;2023-05-07T01:09:24;0.75;;;0.52;;
26486;SDS011;14425;56.136;40.360;2023-05-07T01:11:51;1.10;;;0.70;;
26486;SDS011;14425;56.136;40.360;2023-05-07T01:14:17;0.65;;;0.43;;
26486;SDS011;14425;56.136;40.360;2023-05-07T01:16:44;0.43;;;0.40;;
26486;SDS011;14425;56.136;40.360;2023-05-07T01:19:10;0.68;;;0.52;;
26486;SDS011;14425;56.136;40.360;2023-05-07T01:21:39;0.60;;;0.55;;
26486;SDS011;14425;56.136;40.360;2023-05-07T01:24:10;3.08;;;0.82;;
26486;SDS011;14425;56.136;40.360;2023-05-07T01:26:36;1.35;;;0.75;;
26486;SDS011;14425;56.136;40.360;2023-05-07T01:29:02;0.63;;;0.63;;
26486;SDS011;14425;56.136;40.360;2023-05-07T01:31:27;6.18;;;0.85;;
26486;SDS011;14425;56.136;40.360;2023-05-07T01:33:53;0.55;;;0.50;;
26486;SDS011;14425;56.136;40.360;2023-05-07T01:36:21;0.60;;;0.50;;
26486;SDS011;14425;56.136;40.360;2023-05-07T01:38:51;0.77;;;0.70;;
26486;SDS011;14425;56.136;40.360;2023-05-07T01:41:17;0.95;;;0.70;;
26486;SDS011;14425;56.136;40.360;2023-05-07T01:43:44;1.20;;;0.60;;
26486;SDS011;14425;56.136;40.360;2023-05-07T01:46:11;1.13;;;0.70;;
26486;SDS011;14425;56.136;40.360;2023-05-07T01:48:38;1.30;;;0.60;;
26486;SDS011;14425;56.136;40.360;2023-05-07T01:51:04;1.30;;;0.77;;
26486;SDS011;14425;56.136;40.360;2023-05-07T01:53:35;2.80;;;0.70;;
26486;SDS011;14425;56.136;40.360;2023-05-07T01:56:01;1.20;;;0.80;;
26486;SDS011;14425;56.136;40.360;2023-05-07T01:58:27;1.00;;;0.75;;
26486;SDS011;14425;56.136;40.360;2023-05-07T02:00:53;1.00;;;0.80;;
26486;SDS011;14425;56.136;40.360;2023-05-07T02:03:18;1.48;;;0.70;;
26486;SDS011;14425;56.136;40.360;2023-05-07T02:05:44;2.92;;;0.77;;
26486;SDS011;14425;56.136;40.360;2023-05-07T02:08:09;0.95;;;0.80;;
26486;SDS011;14425;56.136;40.360;2023-05-07T02:10:35;2.63;;;0.93;;
26486;SDS011;14425;56.136;40.360;2023-05-07T02:13:01;2.20;;;0.80;;
26486;SDS011;14425;56.136;40.360;2023-05-07T02:15:27;2.60;;;1.27;;
26486;SDS011;14425;56.136;40.360;2023-05-07T02:18:05;1.10;;;0.60;;
26486;SDS011;14425;56.136;40.360;2023-05-07T02:20:34;3.63;;;1.17;;
26486;SDS011;14425;56.136;40.360;2023-05-07T02:23:00;1.35;;;0.85;;
26486;SDS011;14425;56.136;40.360;2023-05-07T02:25:25;1.50;;;0.93;;
26486;SDS011;14425;56.136;40.360;2023-05-07T02:27:51;1.60;;;1.00;;
26486;SDS011;14425;56.136;40.360;2023-05-07T02:30:17;2.53;;;1.10;;
26486;SDS011;14425;56.136;40.360;2023-05-07T02:32:42;2.17;;;1.17;;
26486;SDS011;14425;56.136;40.360;2023-05-07T02:35:08;2.20;;;1.20;;
26486;SDS011;14425;56.136;40.360;2023-05-07T02:37:33;1.13;;;0.70;;
26486;SDS011;14425;56.136;40.360;2023-05-07T02:39:59;1.92;;;0.70;;
26486;SDS011;14425;56.136;40.360;2023-05-07T02:42:24;1.05;;;0.70;;
26486;SDS011;14425;56.136;40.360;2023-05-07T02:44:50;0.93;;;0.60;;
26486;SDS011;14425;56.136;40.360;2023-05-07T02:47:15;0.68;;;0.57;;
26486;SDS011;14425;56.136;40.360;2023-05-07T02:49:41;1.20;;;0.70;;
26486;SDS011;14425;56.136;40.360;2023-05-07T02:52:06;0.60;;;0.60;;
26486;SDS011;14425;56.136;40.360;2023-05-07T02:54:32;0.98;;;0.60;;
26486;SDS011;14425;56.136;40.360;2023-05-07T02:56:58;0.75;;;0.70;;
26486;SDS011;14425;56.136;40.360;2023-05-07T02:59:23;1.23;;;0.85;;
26486;SDS011;14425;56.136;40.360;2023-05-07T03:01:51;3.30;;;0.73;;
26486;SDS011;14425;56.136;40.360;2023-05-07T03:04:16;1.48;;;0.75;;
26486;SDS011;14425;56.136;40.360;2023-05-07T03:06:42;1.20;;;0.60;;
26486;SDS011;14425;56.136;40.360;2023-05-07T03:09:07;1.05;;;0.70;;
26486;SDS011;14425;56.136;40.360;2023-05-07T03:11:33;2.08;;;1.00;;
26486;SDS011;14425;56.136;40.360;2023-05-07T03:14:00;2.88;;;1.00;;
26486;SDS011;14425;56.136;40.360;2023-05-07T03:16:26;1.95;;;0.90;;
26486;SDS011;14425;56.136;40.360;2023-05-07T03:18:52;0.95;;;0.80;;
26486;SDS011;14425;56.136;40.360;2023-05-07T03:21:18;0.90;;;0.70;;
26486;SDS011;14425;56.136;40.360;2023-05-07T03:23:43;1.40;;;0.80;;
26486;SDS011;14425;56.136;40.360;2023-05-07T03:26:09;0.68;;;0.65;;
26486;SDS011;14425;56.136;40.360;2023-05-07T03:28:34;0.95;;;0.68;;
26486;SDS011;14425;56.136;40.360;2023-05-07T03:31:00;2.80;;;0.70;;
26486;SDS011;14425;56.136;40.360;2023-05-07T03:33:26;1.58;;;0.75;;
26486;SDS011;14425;56.136;40.360;2023-05-07T03:35:52;1.10;;;0.70;;
26486;SDS011;14425;56.136;40.360;2023-05-07T03:38:18;3.15;;;0.70;;
26486;SDS011;14425;56.136;40.360;2023-05-07T03:40:43;2.38;;;0.50;;
26486;SDS011;14425;56.136;40.360;2023-05-07T03:43:09;0.80;;;0.60;;
26486;SDS011;14425;56.136;40.360;2023-05-07T03:45:34;1.30;;;0.80;;
26486;SDS011;14425;56.136;40.360;2023-05-07T03:48:00;0.75;;;0.70;;
26486;SDS011;14425;56.136;40.360;2023-05-07T03:50:26;0.68;;;0.60;;
26486;SDS011;14425;56.136;40.360;2023-05-07T03:52:52;1.00;;;0.60;;
26486;SDS011;14425;56.136;40.360;2023-05-07T03:55:17;0.73;;;0.50;;
26486;SDS011;14425;56.136;40.360;2023-05-07T03:57:43;2.05;;;0.55;;
26486;SDS011;14425;56.136;40.360;2023-05-07T04:00:08;1.13;;;0.60;;
26486;SDS011;14425;56.136;40.360;2023-05-07T04:02:35;1.08;;;0.70;;
26486;SDS011;14425;56.136;40.360;2023-05-07T04:05:00;1.23;;;0.63;;
26486;SDS011;14425;56.136;40.360;2023-05-07T04:07:26;1.00;;;0.80;;
26486;SDS011;14425;56.136;40.360;2023-05-07T04:09:51;1.60;;;0.70;;
26486;SDS011;14425;56.136;40.360;2023-05-07T04:12:17;0.98;;;0.40;;
26486;SDS011;14425;56.136;40.360;2023-05-07T04:14:42;0.93;;;0.77;;
26486;SDS011;14425;56.136;40.360;2023-05-07T04:17:08;0.70;;;0.70;;
26486;SDS011;14425;56.136;40.360;2023-05-07T04:19:34;2.00;;;0.65;;
26486;SDS011;14425;56.136;40.360;2023-05-07T04:22:00;1.60;;;0.57;;
26486;SDS011;14425;56.136;40.360;2023-05-07T04:24:26;1.55;;;0.65;;
26486;SDS011;14425;56.136;40.360;2023-05-07T04:26:51;0.75;;;0.75;;
26486;SDS011;14425;56.136;40.360;2023-05-07T04:29:18;1.05;;;0.60;;
26486;SDS011;14425;56.136;40.360;2023-05-07T04:31:43;1.00;;;0.80;;
26486;SDS011;14425;56.136;40.360;2023-05-07T04:34:10;1.52;;;0.57;;
26486;SDS011;14425;56.136;40.360;2023-05-07T04:36:37;0.82;;;0.60;;
26486;SDS011;14425;56.136;40.360;2023-05-07T04:39:03;0.43;;;0.32;;
26486;SDS011;14425;56.136;40.360;2023-05-07T04:41:29;1.13;;;0.55;;
26486;SDS011;14425;56.136;40.360;2023-05-07T04:43:55;1.50;;;0.77;;
26486;SDS011;14425;56.136;40.360;2023-05-07T04:46:22;1.67;;;0.70;;
26486;SDS011;14425;56.136;40.360;2023-05-07T04:48:49;0.80;;;0.65;;
26486;SDS011;14425;56.136;40.360;2023-05-07T04:51:14;1.10;;;0.60;;
26486;SDS011;14425;56.136;40.360;2023-05-07T04:53:40;1.15;;;0.60;;
26486;SDS011;14425;56.136;40.360;2023-05-07T04:56:05;0.60;;;0.50;;
26486;SDS011;14425;56.136;40.360;2023-05-07T04:58:31;1.85;;;0.60;;
26486;SDS011;14425;56.136;40.360;2023-05-07T05:00:57;1.10;;;0.70;;
26486;SDS011;14425;56.136;40.360;2023-05-07T05:03:23;3.22;;;0.47;;
26486;SDS011;14425;56.136;40.360;2023-05-07T05:05:49;0.70;;;0.70;;
26486;SDS011;14425;56.136;40.360;2023-05-07T05:08:16;1.88;;;0.73;;
26486;SDS011;14425;56.136;40.360;2023-05-07T05:10:42;1.00;;;0.70;;
26486;SDS011;14425;56.136;40.360;2023-05-07T05:13:08;10.15;;;1.60;;
26486;SDS011;14425;56.136;40.360;2023-05-07T05:15:34;0.70;;;0.70;;
26486;SDS011;14425;56.136;40.360;2023-05-07T05:18:00;1.92;;;1.20;;
26486;SDS011;14425;56.136;40.360;2023-05-07T05:20:26;1.67;;;1.02;;
26486;SDS011;14425;56.136;40.360;2023-05-07T05:22:51;2.70;;;1.00;;
26486;SDS011;14425;56.136;40.360;2023-05-07T05:25:17;1.23;;;0.90;;
26486;SDS011;14425;56.136;40.360;2023-05-07T05:27:42;2.08;;;1.20;;
26486;SDS011;14425;56.136;40.360;2023-05-07T05:30:08;0.88;;;0.80;;
26486;SDS011;14425;56.136;40.360;2023-05-07T05:32:34;1.15;;;0.82;;
26486;SDS011;14425;56.136;40.360;2023-05-07T05:34:59;2.00;;;1.25;;
26486;SDS011;14425;56.136;40.360;2023-05-07T05:37:25;1.23;;;0.85;;
26486;SDS011;14425;56.136;40.360;2023-05-07T05:39:51;1.27;;;1.17;;
26486;SDS011;14425;56.136;40.360;2023-05-07T05:42:17;1.05;;;0.95;;
26486;SDS011;14425;56.136;40.360;2023-05-07T05:44:43;0.93;;;0.50;;
26486;SDS011;14425;56.136;40.360;2023-05-07T05:47:08;0.73;;;0.73;;
26486;SDS011;14425;56.136;40.360;2023-05-07T05:49:34;2.30;;;0.73;;
26486;SDS011;14425;56.136;40.360;2023-05-07T05:52:00;1.77;;;1.13;;
26486;SDS011;14425;56.136;40.360;2023-05-07T05:54:25;2.22;;;1.00;;
26486;SDS011;14425;56.136;40.360;2023-05-07T05:56:51;2.63;;;0.80;;
26486;SDS011;14425;56.136;40.360;2023-05-07T05:59:16;4.00;;;0.93;;
26486;SDS011;14425;56.136;40.360;2023-05-07T06:01:42;1.52;;;0.90;;
26486;SDS011;14425;56.136;40.360;2023-05-07T06:04:07;4.10;;;1.20;;
26486;SDS011;14425;56.136;40.360;2023-05-07T06:06:33;1.50;;;1.23;;
26486;SDS011;14425;56.136;40.360;2023-05-07T06:08:58;1.35;;;0.70;;
26486;SDS011;14425;56.136;40.360;2023-05-07T06:11:24;1.33;;;1.20;;
26486;SDS011;14425;56.136;40.360;2023-05-07T06:13:50;2.83;;;1.10;;
26486;SDS011;14425;56.136;40.360;2023-05-07T06:16:16;1.65;;;0.47;;
26486;SDS011;14425;56.136;40.360;2023-05-07T06:18:42;0.52;;;0.52;;
26486;SDS011;14425;56.136;40.360;2023-05-07T06:21:07;1.90;;;0.40;;
26486;SDS011;14425;56.136;40.360;2023-05-07T06:23:33;0.93;;;0.75;;
26486;SDS011;14425;56.136;40.360;2023-05-07T06:25:58;1.05;;;0.80;;
26486;SDS011;14425;56.136;40.360;2023-05-07T06:28:24;0.60;;;0.60;;
26486;SDS011;14425;56.136;40.360;2023-05-07T06:30:49;0.50;;;0.50;;
26486;SDS011;14425;56.136;40.360;2023-05-07T06:33:15;2.40;;;0.85;;
26486;SDS011;14425;56.136;40.360;2023-05-07T06:35:41;2.70;;;0.75;;
26486;SDS011;14425;56.136;40.360;2023-05-07T06:38:06;0.80;;;0.50;;
26486;SDS011;14425;56.136;40.360;2023-05-07T06:40:32;0.90;;;0.60;;
26486;SDS011;14425;56.136;40.360;2023-05-07T06:42:57;4.47;;;0.95;;
26486;SDS011;14425;56.136;40.360;2023-05-07T06:45:23;1.15;;;0.57;;
26486;SDS011;14425;56.136;40.360;2023-05-07T06:47:50;1.48;;;0.77;;
26486;SDS011;14425;56.136;40.360;2023-05-07T06:50:15;2.47;;;1.00;;
26486;SDS011;14425;56.136;40.360;2023-05-07T06:52:42;1.50;;;1.00;;
26486;SDS011;14425;56.136;40.360;2023-05-07T06:55:08;1.67;;;0.98;;
26486;SDS011;14425;56.136;40.360;2023-05-07T06:57:34;0.82;;;0.80;;
26486;SDS011;14425;56.136;40.360;2023-05-07T06:59:59;2.53;;;0.88;;
26486;SDS011;14425;56.136;40.360;2023-05-07T07:02:25;1.00;;;0.77;;
26486;SDS011;14425;56.136;40.360;2023-05-07T07:04:50;3.10;;;0.68;;
26486;SDS011;14425;56.136;40.360;2023-05-07T07:07:16;2.10;;;0.80;;
26486;SDS011;14425;56.136;40.360;2023-05-07T07:09:42;1.80;;;0.75;;
26486;SDS011;14425;56.136;40.360;2023-05-07T07:12:07;1.83;;;0.90;;
26486;SDS011;14425;56.136;40.360;2023-05-07T07:14:33;2.38;;;2.13;;
26486;SDS011;14425;56.136;40.360;2023-05-07T07:16:59;1.15;;;1.00;;
26486;SDS011;14425;56.136;40.360;2023-05-07T07:19:25;0.95;;;0.82;;
26486;SDS011;14425;56.136;40.360;2023-05-07T07:21:51;1.52;;;0.90;;
26486;SDS011;14425;56.136;40.360;2023-05-07T07:24:16;2.92;;;1.60;;
26486;SDS011;14425;56.136;40.360;2023-05-07T07:26:46;1.38;;;0.90;;
26486;SDS011;14425;56.136;40.360;2023-05-07T07:29:12;1.98;;;1.20;;
26486;SDS011;14425;56.136;40.360;2023-05-07T07:31:37;2.35;;;1.00;;
26486;SDS011;14425;56.136;40.360;2023-05-07T07:34:03;1.80;;;1.25;;
26486;SDS011;14425;56.136;40.360;2023-05-07T07:36:28;1.05;;;0.93;;
26486;SDS011;14425;56.136;40.360;2023-05-07T07:38:54;0.82;;;0.70;;
26486;SDS011;14425;56.136;40.360;2023-05-07T07:41:19;3.70;;;1.08;;
26486;SDS011;14425;56.136;40.360;2023-05-07T07:43:45;0.70;;;0.70;;
26486;SDS011;14425;56.136;40.360;2023-05-07T07:46:11;0.77;;;0.77;;
26486;SDS011;14425;56.136;40.360;2023-05-07T07:48:37;1.67;;;0.90;;
26486;SDS011;14425;56.136;40.360;2023-05-07T07:51:03;1.13;;;0.85;;
26486;SDS011;14425;56.136;40.360;2023-05-07T07:53:28;6.45;;;0.73;;
26486;SDS011;14425;56.136;40.360;2023-05-07T07:55:54;1.30;;;0.50;;
26486;SDS011;14425;56.136;40.360;2023-05-07T07:58:20;1.10;;;1.00;;
26486;SDS011;14425;56.136;40.360;2023-05-07T08:00:47;0.55;;;0.52;;
26486;SDS011;14425;56.136;40.360;2023-05-07T08:03:12;1.00;;;0.70;;
26486;SDS011;14425;56.136;40.360;2023-05-07T08:05:39;1.25;;;0.90;;
26486;SDS011;14425;56.136;40.360;2023-05-07T08:08:05;2.30;;;1.00;;
26486;SDS011;14425;56.136;40.360;2023-05-07T08:10:31;1.02;;;0.60;;
26486;SDS011;14425;56.136;40.360;2023-05-07T08:12:59;4.75;;;1.85;;
26486;SDS011;14425;56.136;40.360;2023-05-07T08:15:25;5.20;;;1.52;;
26486;SDS011;14425;56.136;40.360;2023-05-07T08:17:51;2.67;;;1.05;;
26486;SDS011;14425;56.136;40.360;2023-05-07T08:20:16;3.83;;;1.17;;
26486;SDS011;14425;56.136;40.360;2023-05-07T08:22:42;2.33;;;0.90;;
26486;SDS011;14425;56.136;40.360;2023-05-07T08:25:07;2.40;;;1.27;;
26486;SDS011;14425;56.136;40.360;2023-05-07T08:27:33;6.22;;;3.22;;
26486;SDS011;14425;56.136;40.360;2023-05-07T08:29:59;3.75;;;2.05;;
26486;SDS011;14425;56.136;40.360;2023-05-07T08:32:24;4.30;;;2.30;;
26486;SDS011;14425;56.136;40.360;2023-05-07T08:34:50;3.90;;;1.75;;
26486;SDS011;14425;56.136;40.360;2023-05-07T08:37:16;2.83;;;1.83;;
26486;SDS011;14425;56.136;40.360;2023-05-07T08:39:41;3.53;;;1.33;;
26486;SDS011;14425;56.136;40.360;2023-05-07T08:42:07;1.98;;;1.20;;
26486;SDS011;14425;56.136;40.360;2023-05-07T08:44:36;1.05;;;0.90;;
26486;SDS011;14425;56.136;40.360;2023-05-07T08:47:04;2.75;;;1.98;;
26486;SDS011;14425;56.136;40.360;2023-05-07T08:49:32;2.22;;;1.10;;
26486;SDS011;14425;56.136;40.360;2023-05-07T08:51:58;2.28;;;1.17;;
26486;SDS011;14425;56.136;40.360;2023-05-07T08:54:24;2.35;;;0.93;;
26486;SDS011;14425;56.136;40.360;2023-05-07T08:56:50;3.30;;;1.05;;
26486;SDS011;14425;56.136;40.360;2023-05-07T08:59:16;1.77;;;1.20;;
26486;SDS011;14425;56.136;40.360;2023-05-07T09:01:42;2.20;;;1.23;;
26486;SDS011;14425;56.136;40.360;2023-05-07T09:04:07;1.33;;;1.00;;
26486;SDS011;14425;56.136;40.360;2023-05-07T09:06:34;1.95;;;1.10;;
26486;SDS011;14425;56.136;40.360;2023-05-07T09:09:00;4.88;;;2.13;;
26486;SDS011;14425;56.136;40.360;2023-05-07T09:11:27;1.70;;;1.42;;
26486;SDS011;14425;56.136;40.360;2023-05-07T09:13:53;2.95;;;1.27;;
26486;SDS011;14425;56.136;40.360;2023-05-07T09:16:21;2.28;;;1.17;;
26486;SDS011;14425;56.136;40.360;2023-05-07T09:18:48;1.25;;;1.15;;
26486;SDS011;14425;56.136;40.360;2023-05-07T09:21:17;2.00;;;1.50;;
26486;SDS011;14425;56.136;40.360;2023-05-07T09:23:43;2.50;;;1.13;;
26486;SDS011;14425;56.136;40.360;2023-05-07T09:26:09;3.60;;;1.20;;
26486;SDS011;14425;56.136;40.360;2023-05-07T09:28:40;4.32;;;3.13;;
26486;SDS011;14425;56.136;40.360;2023-05-07T09:31:07;10.25;;;3.88;;
26486;SDS011;14425;56.136;40.360;2023-05-07T09:33:33;1.30;;;1.20;;
26486;SDS011;14425;56.136;40.360;2023-05-07T09:36:01;2.70;;;2.08;;
26486;SDS011;14425;56.136;40.360;2023-05-07T09:38:28;2.05;;;1.10;;
26486;SDS011;14425;56.136;40.360;2023-05-07T09:41:03;2.17;;;1.98;;
26486;SDS011;14425;56.136;40.360;2023-05-07T09:43:34;1.73;;;1.10;;
26486;SDS011;14425;56.136;40.360;2023-05-07T09:46:06;1.95;;;1.40;;
26486;SDS011;14425;56.136;40.360;2023-05-07T09:48:37;2.67;;;0.98;;
26486;SDS011;14425;56.136;40.360;2023-05-07T09:54:08;1.85;;;1.10;;
26486;SDS011;14425;56.136;40.360;2023-05-07T09:56:35;7.88;;;2.30;;
26486;SDS011;14425;56.136;40.360;2023-05-07T09:59:03;4.00;;;2.58;;
26486;SDS011;14425;56.136;40.360;2023-05-07T10:01:37;2.80;;;2.00;;
26486;SDS011;14425;56.136;40.360;2023-05-07T10:04:20;4.78;;;1.25;;
26486;SDS011;14425;56.136;40.360;2023-05-07T10:06:46;3.35;;;1.20;;
26486;SDS011;14425;56.136;40.360;2023-05-07T10:09:12;5.25;;;1.25;;
26486;SDS011;14425;56.136;40.360;2023-05-07T10:11:40;1.60;;;1.20;;
26486;SDS011;14425;56.136;40.360;2023-05-07T10:14:06;1.90;;;1.20;;
26486;SDS011;14425;56.136;40.360;2023-05-07T10:16:33;1.25;;;1.00;;
26486;SDS011;14425;56.136;40.360;2023-05-07T10:19:03;2.80;;;1.30;;
26486;SDS011;14425;56.136;40.360;2023-05-07T10:21:30;1.92;;;1.08;;
26486;SDS011;14425;56.136;40.360;2023-05-07T10:24:09;3.90;;;1.10;;
26486;SDS011;14425;56.136;40.360;2023-05-07T10:29:10;2.00;;;1.00;;
26486;SDS011;14425;56.136;40.360;2023-05-07T10:34:21;2.13;;;1.27;;
26486;SDS011;14425;56.136;40.360;2023-05-07T10:36:50;2.50;;;1.27;;
26486;SDS011;14425;56.136;40.360;2023-05-07T10:39:18;0.88;;;0.88;;
26486;SDS011;14425;56.136;40.360;2023-05-07T10:41:46;0.95;;;0.60;;
26486;SDS011;14425;56.136;40.360;2023-05-07T10:44:11;0.85;;;0.75;;
26486;SDS011;14425;56.136;40.360;2023-05-07T10:47:03;2.72;;;1.42;;
26486;SDS011;14425;56.136;40.360;2023-05-07T10:49:30;7.10;;;3.92;;
26486;SDS011;14425;56.136;40.360;2023-05-07T10:52:15;8.80;;;4.70;;
26486;SDS011;14425;56.136;40.360;2023-05-07T10:54:45;35.88;;;17.90;;
26486;SDS011;14425;56.136;40.360;2023-05-07T11:00:47;4.70;;;3.10;;
26486;SDS011;14425;56.136;40.360;2023-05-07T11:05:25;1.52;;;1.35;;
26486;SDS011;14425;56.136;40.360;2023-05-07T11:07:56;5.50;;;1.67;;
26486;SDS011;14425;56.136;40.360;2023-05-07T11:10:22;3.35;;;1.70;;
26486;SDS011;14425;56.136;40.360;2023-05-07T11:15:15;2.92;;;1.95;;
26486;SDS011;14425;56.136;40.360;2023-05-07T11:17:58;2.28;;;1.60;;
26486;SDS011;14425;56.136;40.360;2023-05-07T11:20:44;2.10;;;1.20;;
26486;SDS011;14425;56.136;40.360;2023-05-07T11:26:03;2.70;;;1.85;;
26486;SDS011;14425;56.136;40.360;2023-05-07T11:28:29;2.83;;;1.80;;
26486;SDS011;14425;56.136;40.360;2023-05-07T11:30:56;2.72;;;1.20;;
26486;SDS011;14425;56.136;40.360;2023-05-07T11:33:22;3.55;;;1.50;;
26486;SDS011;14425;56.136;40.360;2023-05-07T11:35:55;3.50;;;1.17;;
26486;SDS011;14425;56.136;40.360;2023-05-07T11:38:21;1.60;;;0.80;;
26486;SDS011;14425;56.136;40.360;2023-05-07T11:40:54;2.10;;;1.38;;
26486;SDS011;14425;56.136;40.360;2023-05-07T11:43:21;2.60;;;1.30;;
26486;SDS011;14425;56.136;40.360;2023-05-07T11:45:47;1.90;;;1.52;;
26486;SDS011;14425;56.136;40.360;2023-05-07T11:48:13;1.50;;;0.80;;
26486;SDS011;14425;56.136;40.360;2023-05-07T11:53:37;4.18;;;2.20;;
26486;SDS011;14425;56.136;40.360;2023-05-07T11:56:12;1.63;;;1.30;;
26486;SDS011;14425;56.136;40.360;2023-05-07T11:58:39;3.58;;;1.58;;
26486;SDS011;14425;56.136;40.360;2023-05-07T12:01:09;2.75;;;2.13;;
26486;SDS011;14425;56.136;40.360;2023-05-07T12:03:36;8.45;;;2.22;;
26486;SDS011;14425;56.136;40.360;2023-05-07T12:06:02;3.83;;;1.70;;
26486;SDS011;14425;56.136;40.360;2023-05-07T12:08:30;2.80;;;1.58;;
26486;SDS011;14425;56.136;40.360;2023-05-07T12:10:56;1.73;;;0.90;;
26486;SDS011;14425;56.136;40.360;2023-05-07T12:13:22;4.25;;;1.63;;
26486;SDS011;14425;56.136;40.360;2023-05-07T12:15:53;3.58;;;1.67;;
26486;SDS011;14425;56.136;40.360;2023-05-07T12:18:20;13.27;;;6.18;;
26486;SDS011;14425;56.136;40.360;2023-05-07T12:20:47;2.42;;;1.88;;
26486;SDS011;14425;56.136;40.360;2023-05-07T12:23:13;9.60;;;5.10;;
26486;SDS011;14425;56.136;40.360;2023-05-07T12:25:40;5.03;;;2.90;;
26486;SDS011;14425;56.136;40.360;2023-05-07T12:28:15;5.75;;;2.42;;
26486;SDS011;14425;56.136;40.360;2023-05-07T12:30:45;3.47;;;1.58;;
26486;SDS011;14425;56.136;40.360;2023-05-07T12:33:15;5.05;;;2.58;;
26486;SDS011;14425;56.136;40.360;2023-05-07T12:35:48;4.10;;;2.30;;
26486;SDS011;14425;56.136;40.360;2023-05-07T12:38:14;6.57;;;3.33;;
26486;SDS011;14425;56.136;40.360;2023-05-07T12:40:45;7.00;;;3.70;;
26486;SDS011;14425;56.136;40.360;2023-05-07T12:43:19;5.20;;;3.75;;
26486;SDS011;14425;56.136;40.360;2023-05-07T12:45:46;4.22;;;2.90;;
26486;SDS011;14425;56.136;40.360;2023-05-07T12:48:14;3.03;;;1.60;;
26486;SDS011;14425;56.136;40.360;2023-05-07T12:50:39;9.77;;;1.15;;
26486;SDS011;14425;56.136;40.360;2023-05-07T12:53:06;7.50;;;2.55;;
26486;SDS011;14425;56.136;40.360;2023-05-07T12:55:40;3.55;;;1.50;;
26486;SDS011;14425;56.136;40.360;2023-05-07T12:58:15;2.67;;;1.63;;
26486;SDS011;14425;56.136;40.360;2023-05-07T13:00:44;1.60;;;1.40;;
26486;SDS011;14425;56.136;40.360;2023-05-07T13:03:16;6.22;;;2.08;;
26486;SDS011;14425;56.136;40.360;2023-05-07T13:05:47;2.70;;;1.60;;
26486;SDS011;14425;56.136;40.360;2023-05-07T13:08:12;6.60;;;5.20;;
26486;SDS011;14425;56.136;40.360;2023-05-07T13:10:48;1.95;;;1.85;;
26486;SDS011;14425;56.136;40.360;2023-05-07T13:13:14;1.55;;;1.35;;
26486;SDS011;14425;56.136;40.360;2023-05-07T13:15:40;1.92;;;1.50;;
26486;SDS011;14425;56.136;40.360;2023-05-07T13:18:05;4.40;;;1.20;;
26486;SDS011;14425;56.136;40.360;2023-05-07T13:20:31;1.15;;;1.02;;
26486;SDS011;14425;56.136;40.360;2023-05-07T13:22:56;5.90;;;1.42;;
26486;SDS011;14425;56.136;40.360;2023-05-07T13:25:22;4.82;;;3.65;;
26486;SDS011;14425;56.136;40.360;2023-05-07T13:27:47;6.78;;;5.43;;
26486;SDS011;14425;56.136;40.360;2023-05-07T13:30:13;4.82;;;2.78;;
26486;SDS011;14425;56.136;40.360;2023-05-07T13:32:38;2.55;;;2.00;;
26486;SDS011;14425;56.136;40.360;2023-05-07T13:35:04;4.10;;;2.45;;
26486;SDS011;14425;56.136;40.360;2023-05-07T13:37:30;1.95;;;1.67;;
26486;SDS011;14425;56.136;40.360;2023-05-07T13:39:55;17.00;;;1.70;;
26486;SDS011;14425;56.136;40.360;2023-05-07T13:42:21;3.70;;;1.10;;
26486;SDS011;14425;56.136;40.360;2023-05-07T13:44:46;4.22;;;1.55;;
26486;SDS011;14425;56.136;40.360;2023-05-07T13:47:15;2.08;;;1.30;;
26486;SDS011;14425;56.136;40.360;2023-05-07T13:49:40;3.92;;;1.95;;
26486;SDS011;14425;56.136;40.360;2023-05-07T13:52:06;2.67;;;1.58;;
26486;SDS011;14425;56.136;40.360;2023-05-07T13:54:31;2.63;;;1.67;;
26486;SDS011;14425;56.136;40.360;2023-05-07T13:56:57;2.13;;;1.45;;
26486;SDS011;14425;56.136;40.360;2023-05-07T13:59:22;5.22;;;1.70;;
26486;SDS011;14425;56.136;40.360;2023-05-07T14:01:48;9.20;;;6.22;;
26486;SDS011;14425;56.136;40.360;2023-05-07T14:04:13;7.13;;;5.00;;
26486;SDS011;14425;56.136;40.360;2023-05-07T14:06:38;1.98;;;1.63;;
26486;SDS011;14425;56.136;40.360;2023-05-07T14:09:04;1.95;;;1.27;;
26486;SDS011;14425;56.136;40.360;2023-05-07T14:11:29;7.25;;;2.85;;
26486;SDS011;14425;56.136;40.360;2023-05-07T14:13:55;4.38;;;1.45;;
26486;SDS011;14425;56.136;40.360;2023-05-07T14:16:21;3.80;;;1.95;;
26486;SDS011;14425;56.136;40.360;2023-05-07T14:18:47;5.20;;;1.50;;
26486;SDS011;14425;56.136;40.360;2023-05-07T14:21:12;1.17;;;1.08;;
26486;SDS011;14425;56.136;40.360;2023-05-07T14:23:39;2.28;;;1.40;;
26486;SDS011;14425;56.136;40.360;2023-05-07T14:26:04;2.42;;;1.33;;
26486;SDS011;14425;56.136;40.360;2023-05-07T14:28:30;6.85;;;4.28;;
26486;SDS011;14425;56.136;40.360;2023-05-07T14:30:55;16.50;;;7.75;;
26486;SDS011;14425;56.136;40.360;2023-05-07T14:33:21;21.23;;;9.75;;
26486;SDS011;14425;56.136;40.360;2023-05-07T14:35:46;20.48;;;11.18;;
26486;SDS011;14425;56.136;40.360;2023-05-07T14:38:14;34.50;;;19.38;;
26486;SDS011;14425;56.136;40.360;2023-05-07T14:40:40;8.75;;;5.05;;
26486;SDS011;14425;56.136;40.360;2023-05-07T14:43:06;8.40;;;3.88;;
26486;SDS011;14425;56.136;40.360;2023-05-07T14:45:31;7.22;;;3.65;;
26486;SDS011;14425;56.136;40.360;2023-05-07T14:47:57;8.65;;;4.70;;
26486;SDS011;14425;56.136;40.360;2023-05-07T14:50:22;14.00;;;4.07;;
26486;SDS011;14425;56.136;40.360;2023-05-07T14:52:48;9.73;;;5.50;;